Time;durP1;ratioP1;P1;durP2;ratioP2;P2;SDS_P1;SDS_P2;PMS_P1;PMS_P2;Temp;Humidity;BMP_temperature;BMP_pressure;BME280_temperature;BME280_humidity;BME280_pressure;Samples;Min_cycle;Max_cycle;Signal;HPM_P1;HPM_P2
2021/05/28 00:01:16;;;;;;;13.13;7.82;;;;;;;13.02;62.39;102507.59;5060388;28;20078;-81
2021/05/28 00:03:42;;;;;;;15.88;7.68;;;;;;;12.99;62.07;102507.63;5056353;28;20071;-81
2021/05/28 00:06:09;;;;;;;12.65;6.85;;;;;;;12.93;62.18;102506.75;5058957;28;20020;-78
2021/05/28 00:08:35;;;;;;;17.73;8.77;;;;;;;12.92;62.39;102504.97;5061770;28;20100;-80
2021/05/28 00:11:02;;;;;;;15.60;8.90;;;;;;;12.89;62.65;102507.63;5033521;28;20033;-82
2021/05/28 00:13:28;;;;;;;14.30;8.98;;;;;;;12.85;62.22;102510.31;5061706;28;20033;-79
2021/05/28 00:15:55;;;;;;;18.65;9.07;;;;;;;12.84;62.67;102512.06;5044567;28;20044;-79
2021/05/28 00:18:21;;;;;;;19.95;10.27;;;;;;;12.82;62.88;102516.50;5054706;28;20047;-79
2021/05/28 00:20:47;;;;;;;20.25;10.45;;;;;;;12.79;62.70;102516.53;5063632;28;20082;-79
2021/05/28 00:23:14;;;;;;;14.85;9.50;;;;;;;12.79;62.67;102513.88;5065736;28;20530;-80
2021/05/28 00:25:40;;;;;;;17.17;11.45;;;;;;;12.79;62.92;102500.56;5061679;28;20112;-78
2021/05/28 00:28:07;;;;;;;20.00;11.60;;;;;;;12.78;62.99;102498.78;5059902;28;20056;-80
2021/05/28 00:30:33;;;;;;;19.27;11.23;;;;;;;12.76;62.45;102508.53;5061831;28;20032;-80
2021/05/28 00:33:00;;;;;;;19.27;11.70;;;;;;;12.78;62.79;102504.13;5070524;28;20033;-79
2021/05/28 00:35:26;;;;;;;19.30;10.95;;;;;;;12.70;62.67;102495.28;5053823;28;20076;-79
2021/05/28 00:37:53;;;;;;;18.42;11.50;;;;;;;12.69;62.74;102498.84;5057665;28;20036;-78
2021/05/28 00:40:19;;;;;;;21.27;12.73;;;;;;;12.67;62.94;102501.47;5055794;28;20047;-79
2021/05/28 00:42:46;;;;;;;21.13;11.80;;;;;;;12.64;62.84;102505.94;5053663;28;20044;-79
2021/05/28 00:45:13;;;;;;;18.85;12.00;;;;;;;12.59;62.41;102498.84;5057878;28;20025;-80
2021/05/28 00:47:40;;;;;;;22.92;11.07;;;;;;;12.57;62.40;102497.97;5055327;28;20029;-80
2021/05/28 00:50:07;;;;;;;12.90;9.18;;;;;;;12.55;62.78;102501.53;5056066;28;20374;-79
2021/05/28 00:52:34;;;;;;;19.05;10.52;;;;;;;12.53;62.73;102493.53;5061393;28;20024;-79
2021/05/28 00:55:01;;;;;;;16.90;10.13;;;;;;;12.53;62.80;102498.84;5036063;28;20120;-80
2021/05/28 00:57:30;;;;;;;17.65;10.00;;;;;;;12.51;62.83;102503.31;5057028;28;20124;-80
2021/05/28 00:59:58;;;;;;;21.90;12.50;;;;;;;12.48;62.96;102505.94;5040260;28;20020;-79
2021/05/28 01:02:26;;;;;;;17.17;10.00;;;;;;;12.46;62.74;102507.72;5060169;28;20024;-82
2021/05/28 01:04:53;;;;;;;15.20;9.75;;;;;;;12.44;63.01;102504.19;5046553;28;20495;-81
2021/05/28 01:07:20;;;;;;;15.75;10.57;;;;;;;12.43;62.49;102513.03;5058205;28;20495;-81
2021/05/28 01:09:47;;;;;;;20.70;11.52;;;;;;;12.36;62.70;102506.88;5058066;28;20041;-81
2021/05/28 01:12:13;;;;;;;21.92;11.07;;;;;;;12.35;63.00;102498.88;5040694;28;20089;-80
2021/05/28 01:14:40;;;;;;;15.38;10.40;;;;;;;12.35;62.47;102514.81;5068436;28;20020;-80
2021/05/28 01:17:06;;;;;;;19.20;9.73;;;;;;;12.30;62.95;102507.75;5061915;28;20051;-79
2021/05/28 01:19:33;;;;;;;16.15;11.07;;;;;;;12.26;63.23;102513.94;5082985;22;20491;-84
2021/05/28 01:22:07;;;;;;;15.20;10.00;;;;;;;12.32;63.18;102522.81;5068441;28;20037;-85
2021/05/28 01:24:34;;;;;;;18.65;9.85;;;;;;;12.25;63.01;102514.81;5072847;28;20103;-85
2021/05/28 01:27:02;;;;;;;15.05;9.52;;;;;;;12.23;63.20;102516.59;5072282;28;20475;-85
2021/05/28 01:29:29;;;;;;;13.82;8.98;;;;;;;12.22;62.69;102516.59;5072584;28;20024;-85
2021/05/28 01:31:55;;;;;;;13.68;7.53;;;;;;;12.19;62.81;102513.97;5068715;28;20134;-85
2021/05/28 01:34:22;;;;;;;14.10;8.50;;;;;;;12.16;63.02;102514.81;5068874;28;20103;-85
2021/05/28 01:36:48;;;;;;;13.25;8.70;;;;;;;12.14;63.43;102520.13;5080737;28;20119;-85
2021/05/28 01:39:15;;;;;;;22.08;8.90;;;;;;;12.12;63.22;102510.41;5072682;28;20031;-84
2021/05/28 01:41:41;;;;;;;11.55;8.25;;;;;;;12.10;63.11;102509.50;5072324;28;20470;-85
2021/05/28 01:44:10;;;;;;;12.82;8.10;;;;;;;12.07;63.30;102506.84;5072580;28;20036;-85
2021/05/28 01:46:37;;;;;;;9.70;7.13;;;;;;;12.07;62.95;102507.72;5072984;28;20021;-85
2021/05/28 01:49:05;;;;;;;13.40;8.38;;;;;;;12.04;63.01;102509.53;5073095;28;20031;-85
2021/05/28 01:51:32;;;;;;;13.52;7.93;;;;;;;12.03;62.98;102505.09;5072045;28;20529;-84
2021/05/28 01:53:59;;;;;;;15.68;8.73;;;;;;;12.00;63.01;102505.06;5072096;28;20029;-84
2021/05/28 01:56:28;;;;;;;11.98;7.50;;;;;;;11.95;63.27;102495.31;5072433;28;20394;-85
2021/05/28 01:58:55;;;;;;;11.88;7.82;;;;;;;11.93;62.79;102489.09;5061279;28;20746;-85
2021/05/28 02:01:21;;;;;;;8.88;6.90;;;;;;;11.90;62.96;102496.16;5072230;28;20043;-85
2021/05/28 02:03:48;;;;;;;10.25;7.07;;;;;;;11.85;62.94;102496.19;5071988;28;20137;-85
2021/05/28 02:06:14;;;;;;;10.02;6.80;;;;;;;11.84;62.93;102496.16;5062520;28;20050;-84
2021/05/28 02:08:41;;;;;;;15.77;7.95;;;;;;;11.78;63.39;102494.41;5072546;28;20036;-84
2021/05/28 02:11:07;;;;;;;10.43;7.07;;;;;;;11.76;63.29;102496.16;5062912;28;20098;-85
2021/05/28 02:13:33;;;;;;;11.85;8.98;;;;;;;11.77;63.35;102500.59;5072001;28;20025;-85
2021/05/28 02:16:00;;;;;;;16.42;9.68;;;;;;;11.77;62.95;102513.88;5071865;28;20490;-84
2021/05/28 02:18:26;;;;;;;14.55;7.57;;;;;;;11.76;63.37;102514.75;5072080;28;20032;-84
2021/05/28 02:20:53;;;;;;;14.13;9.30;;;;;;;11.75;62.86;102526.25;5071638;28;20464;-85
2021/05/28 02:23:19;;;;;;;10.70;7.82;;;;;;;11.76;63.31;102526.28;5071907;28;20080;-85
2021/05/28 02:25:46;;;;;;;24.88;8.77;;;;;;;11.75;63.43;102531.56;5069852;28;20036;-85
2021/05/28 02:28:12;;;;;;;16.40;8.15;;;;;;;11.75;63.23;102532.47;5061128;28;20398;-85
2021/05/28 02:30:39;;;;;;;15.13;9.00;;;;;;;11.76;63.01;102528.94;5069974;28;20036;-85
2021/05/28 02:33:05;;;;;;;19.92;10.20;;;;;;;11.73;63.36;102530.69;5071676;28;20029;-84
2021/05/28 02:35:32;;;;;;;19.45;10.07;;;;;;;11.71;63.13;102532.44;5075401;28;20026;-84
2021/05/28 02:37:58;;;;;;;19.80;11.77;;;;;;;11.67;62.99;102525.38;5075292;28;20024;-84
2021/05/28 02:40:25;;;;;;;16.33;11.18;;;;;;;11.67;63.21;102525.38;5075062;28;20025;-84
2021/05/28 02:42:51;;;;;;;18.33;10.30;;;;;;;11.64;63.76;102534.22;5075291;28;20082;-85
2021/05/28 02:45:19;;;;;;;17.85;11.13;;;;;;;11.63;63.28;102535.09;5075554;28;20033;-85
2021/05/28 02:47:45;;;;;;;19.15;12.57;;;;;;;11.64;63.41;102536.88;5075334;28;20119;-85
2021/05/28 02:50:13;;;;;;;18.77;11.27;;;;;;;11.64;63.26;102547.47;5076239;22;20071;-77
2021/05/28 02:52:39;;;;;;;19.45;12.05;;;;;;;11.66;63.41;102545.69;5055431;28;20033;-77
2021/05/28 02:55:06;;;;;;;19.45;11.63;;;;;;;11.67;63.52;102554.56;5055572;28;20083;-77
2021/05/28 02:57:35;;;;;;;16.40;11.82;;;;;;;11.64;63.60;102553.66;5054891;28;20033;-78
2021/05/28 03:00:04;;;;;;;27.90;13.05;;;;;;;11.67;63.34;102560.75;5055975;28;20032;-78
2021/05/28 03:02:30;;;;;;;16.20;11.02;;;;;;;11.63;63.56;102561.63;5056121;28;20039;-78
2021/05/28 03:04:57;;;;;;;17.05;11.20;;;;;;;11.62;63.64;102559.84;5044514;28;20108;-78
2021/05/28 03:07:24;;;;;;;18.98;11.05;;;;;;;11.61;63.70;102564.28;5054889;28;20069;-81
2021/05/28 03:09:50;;;;;;;13.45;9.98;;;;;;;11.60;63.38;102562.50;5055849;28;20059;-81
2021/05/28 03:12:16;;;;;;;17.73;12.23;;;;;;;11.57;63.74;102570.44;5055468;28;20029;-81
2021/05/28 03:14:43;;;;;;;18.77;12.43;;;;;;;11.56;63.56;102571.31;5055688;28;20037;-82
2021/05/28 03:17:09;;;;;;;14.88;10.18;;;;;;;11.55;63.51;102558.06;5054123;28;20044;-81
2021/05/28 03:19:43;;;;;;;16.08;11.45;;;;;;;11.53;63.47;102560.72;5054923;28;20361;-82
2021/05/28 03:24:54;;;;;;;19.98;11.90;;;;;;;11.50;63.17;102568.66;5079065;27;20413;-83
2021/05/28 03:27:20;;;;;;;20.35;11.98;;;;;;;11.46;63.48;102572.19;5070908;28;20025;-82
2021/05/28 03:29:46;;;;;;;17.17;11.60;;;;;;;11.45;63.42;102586.31;5061209;28;20026;-82
2021/05/28 03:32:13;;;;;;;15.88;11.43;;;;;;;11.43;63.74;102575.72;5050150;28;20025;-82
2021/05/28 03:34:39;;;;;;;21.35;12.75;;;;;;;11.41;63.64;102579.25;5050302;28;20112;-80
2021/05/28 03:37:08;;;;;;;20.05;12.40;;;;;;;11.42;63.74;102581.03;5048268;28;20484;-82
2021/05/28 03:39:34;;;;;;;20.55;13.23;;;;;;;11.39;63.39;102575.69;5047901;28;20131;-83
2021/05/28 03:42:01;;;;;;;23.58;13.73;;;;;;;11.39;63.37;102573.94;5050136;28;20527;-82
2021/05/28 03:44:27;;;;;;;20.90;13.20;;;;;;;11.39;63.61;102575.69;5050280;28;20037;-82
2021/05/28 03:46:54;;;;;;;22.40;14.43;;;;;;;11.40;63.87;102566.84;5046429;28;20106;-83
2021/05/28 03:49:20;;;;;;;19.70;13.02;;;;;;;11.37;63.51;102567.72;5050128;28;20033;-82
2021/05/28 03:51:47;;;;;;;17.88;12.23;;;;;;;11.37;63.40;102564.19;5047439;28;20057;-82
2021/05/28 03:54:13;;;;;;;19.00;12.85;;;;;;;11.36;63.26;102573.03;5049046;28;20030;-81
2021/05/28 03:56:40;;;;;;;22.52;13.88;;;;;;;11.33;63.21;102569.47;5050200;28;20112;-82
2021/05/28 03:59:06;;;;;;;24.13;14.88;;;;;;;11.28;63.26;102573.88;5044688;28;20037;-81
2021/05/28 04:01:32;;;;;;;19.38;12.43;;;;;;;11.27;63.53;102577.41;5050190;28;20021;-82
2021/05/28 04:03:59;;;;;;;16.95;12.52;;;;;;;11.27;63.39;102574.75;5044818;28;20033;-81
2021/05/28 04:06:25;;;;;;;18.75;11.63;;;;;;;11.28;63.50;102579.19;5049955;28;20044;-82
2021/05/28 04:08:51;;;;;;;23.33;13.95;;;;;;;11.27;63.58;102569.44;5048067;28;20027;-82
2021/05/28 04:11:18;;;;;;;20.92;14.50;;;;;;;11.31;63.42;102576.56;5049698;28;20032;-81
2021/05/28 04:13:46;;;;;;;27.52;15.02;;;;;;;11.35;63.44;102576.56;5048644;28;20373;-82
2021/05/28 04:16:12;;;;;;;22.67;16.25;;;;;;;11.35;63.66;102577.44;5049590;28;20487;-82
2021/05/28 04:18:38;;;;;;;20.58;14.52;;;;;;;11.36;63.37;102573.03;5050012;28;20064;-83
2021/05/28 04:21:05;;;;;;;24.15;15.07;;;;;;;11.37;63.48;102580.13;5049995;28;20040;-82
2021/05/28 04:23:31;;;;;;;21.73;14.05;;;;;;;11.37;63.44;102570.38;5049409;28;20037;-82
2021/05/28 04:25:57;;;;;;;26.08;16.38;;;;;;;11.40;63.57;102574.81;5049907;28;20033;-82
2021/05/28 04:28:25;;;;;;;24.25;15.70;;;;;;;11.42;63.42;102573.94;5048116;28;20033;-82
2021/05/28 04:30:52;;;;;;;18.50;13.90;;;;;;;11.43;63.22;102572.19;5049645;28;20083;-81
2021/05/28 04:33:18;;;;;;;21.42;15.07;;;;;;;11.46;63.71;102574.84;5048947;28;20021;-79
2021/05/28 04:35:45;;;;;;;19.02;15.13;;;;;;;11.47;63.26;102572.19;5027534;28;20057;-81
2021/05/28 04:38:11;;;;;;;22.83;13.95;;;;;;;11.50;63.34;102576.59;5035313;28;20376;-82
2021/05/28 04:40:37;;;;;;;20.17;14.23;;;;;;;11.52;63.37;102580.16;5036314;28;20424;-82
2021/05/28 04:43:03;;;;;;;26.30;17.30;;;;;;;11.52;63.38;102574.88;5036032;28;20029;-82
2021/05/28 04:45:29;;;;;;;23.92;14.70;;;;;;;11.54;63.30;102573.09;5036194;28;20022;-81
2021/05/28 04:47:56;;;;;;;21.55;14.23;;;;;;;11.58;63.82;102579.31;5035907;28;20464;-81
2021/05/28 04:50:30;;;;;;;26.20;14.60;;;;;;;11.63;63.33;102581.09;5032963;28;20025;-81
2021/05/28 04:52:58;;;;;;;21.15;13.55;;;;;;;11.67;63.56;102578.47;5034973;28;20065;-80
2021/05/28 04:55:26;;;;;;;24.10;15.70;;;;;;;11.71;63.50;102580.25;5036051;28;20067;-80
2021/05/28 04:57:53;;;;;;;17.08;12.20;;;;;;;11.75;63.50;102582.91;5030269;28;20057;-81
2021/05/28 05:00:20;;;;;;;18.95;12.52;;;;;;;11.81;63.46;102579.38;5028817;28;20388;-82
2021/05/28 05:02:47;;;;;;;21.60;14.48;;;;;;;11.84;63.66;102582.06;5033849;28;20539;-82
2021/05/28 05:05:14;;;;;;;17.60;11.90;;;;;;;11.89;63.70;102582.94;5034734;28;20056;-82
2021/05/28 05:07:40;;;;;;;18.23;12.70;;;;;;;11.93;63.88;102584.72;5028514;28;21331;-82
2021/05/28 05:10:07;;;;;;;21.80;12.38;;;;;;;12.01;64.00;102589.19;5031855;28;20028;-82
2021/05/28 05:12:34;;;;;;;16.98;10.73;;;;;;;12.05;63.64;102594.53;5033600;28;20040;-81
2021/05/28 05:15:00;;;;;;;18.67;10.50;;;;;;;12.13;64.17;102599.84;5019000;28;20029;-82
2021/05/28 05:17:26;;;;;;;18.10;11.38;;;;;;;12.20;64.19;102600.72;5021897;28;20041;-81
2021/05/28 05:19:53;;;;;;;20.30;11.05;;;;;;;12.25;64.31;102610.50;5028058;28;20111;-81
2021/05/28 05:22:19;;;;;;;17.70;10.15;;;;;;;12.30;64.34;102606.06;5023452;28;20036;-83
2021/05/28 05:24:52;;;;;;;16.10;10.75;;;;;;;12.45;64.02;102601.66;5023294;28;20041;-81
2021/05/28 05:27:18;;;;;;;12.45;9.02;;;;;;;12.43;64.21;102608.75;5024363;28;20041;-81
2021/05/28 05:29:44;;;;;;;18.65;11.18;;;;;;;12.48;63.78;102612.28;5025354;28;20797;-81
2021/05/28 05:32:11;;;;;;;18.63;10.43;;;;;;;12.55;63.83;102622.03;5026436;28;20037;-80
2021/05/28 05:34:37;;;;;;;17.85;10.02;;;;;;;12.60;63.66;102625.59;5035746;28;20075;-82
2021/05/28 05:37:03;;;;;;;16.20;10.50;;;;;;;12.66;64.02;102621.16;5034975;28;20041;-81
2021/05/28 05:39:31;;;;;;;16.58;10.32;;;;;;;12.73;64.30;102628.25;5033756;28;20388;-81
2021/05/28 05:41:59;;;;;;;16.23;8.60;;;;;;;12.75;64.38;102626.47;5033403;28;20045;-82
2021/05/28 05:44:26;;;;;;;14.68;9.27;;;;;;;12.80;63.80;102624.72;5034505;28;20037;-82
2021/05/28 05:46:52;;;;;;;18.35;11.15;;;;;;;12.84;63.89;102626.47;5025924;28;20030;-82
2021/05/28 05:49:18;;;;;;;18.35;9.45;;;;;;;12.89;63.63;102619.34;5035671;28;20109;-82
2021/05/28 05:51:44;;;;;;;17.90;8.93;;;;;;;12.94;63.50;102628.22;5028204;28;20017;-81
2021/05/28 05:54:12;;;;;;;16.25;10.15;;;;;;;13.00;63.20;102624.69;5024774;28;20121;-79
2021/05/28 05:56:38;;;;;;;13.88;9.95;;;;;;;13.05;63.76;102622.88;5026389;28;20041;-80
2021/05/28 05:59:04;;;;;;;17.15;9.68;;;;;;;13.07;64.11;102623.78;5030925;28;20029;-79
2021/05/28 06:01:30;;;;;;;14.23;9.82;;;;;;;13.12;63.71;102626.41;5034114;28;20018;-81
2021/05/28 06:03:58;;;;;;;19.90;10.40;;;;;;;13.16;63.07;102633.53;5028739;28;20053;-78
2021/05/28 06:06:24;;;;;;;18.80;11.70;;;;;;;13.19;63.36;102629.97;5023541;28;20034;-81
2021/05/28 06:08:51;;;;;;;14.10;9.82;;;;;;;13.23;63.07;102629.97;5023071;28;20108;-80
2021/05/28 06:11:17;;;;;;;20.95;9.57;;;;;;;13.21;63.59;102637.06;5030357;28;20022;-80
2021/05/28 06:13:44;;;;;;;15.18;9.52;;;;;;;13.24;63.38;102639.69;5033012;28;20038;-79
2021/05/28 06:16:11;;;;;;;18.33;10.43;;;;;;;13.28;63.26;102640.56;5033238;28;20471;-79
2021/05/28 06:18:37;;;;;;;13.52;8.15;;;;;;;13.34;63.23;102642.34;5032493;28;20083;-81
2021/05/28 06:21:03;;;;;;;15.23;10.23;;;;;;;13.33;63.69;102646.78;5021091;28;20502;-80
2021/05/28 06:23:29;;;;;;;17.02;10.35;;;;;;;13.40;63.79;102645.91;5034174;28;20717;-80
2021/05/28 06:25:57;;;;;;;16.40;10.18;;;;;;;13.45;63.36;102645.91;5034300;28;20017;-80
2021/05/28 06:28:23;;;;;;;18.08;10.45;;;;;;;13.50;63.85;102654.75;5033731;28;20024;-82
2021/05/28 06:30:49;;;;;;;13.90;9.00;;;;;;;13.53;63.36;102652.09;5034193;28;20033;-81
2021/05/28 06:33:15;;;;;;;14.60;9.90;;;;;;;13.58;63.24;102654.72;5034020;28;20029;-81
2021/05/28 06:35:41;;;;;;;16.40;11.45;;;;;;;13.65;63.24;102658.28;5031499;28;20029;-80
2021/05/28 06:38:09;;;;;;;16.38;10.85;;;;;;;13.68;63.30;102658.25;5027042;28;20025;-81
2021/05/28 06:40:37;;;;;;;16.33;10.50;;;;;;;13.73;63.88;102653.78;5026410;28;20021;-80
2021/05/28 06:43:03;;;;;;;17.95;10.27;;;;;;;13.80;63.64;102659.97;5032561;28;20043;-81
2021/05/28 06:45:30;;;;;;;13.95;9.65;;;;;;;13.87;63.06;102659.94;5032636;28;20060;-81
2021/05/28 06:47:56;;;;;;;16.98;10.10;;;;;;;13.94;63.07;102659.91;5030297;28;20029;-81
2021/05/28 06:50:22;;;;;;;12.77;8.85;;;;;;;14.02;63.18;102663.44;5020234;28;20389;-80
2021/05/28 06:52:49;;;;;;;13.85;8.98;;;;;;;14.09;63.16;102662.47;5022205;28;20029;-80
2021/05/28 06:55:16;;;;;;;19.73;12.88;;;;;;;14.16;63.09;102674.03;5032299;28;20021;-80
2021/05/28 06:57:43;;;;;;;13.85;9.40;;;;;;;14.17;63.28;102667.81;5030347;28;20409;-81
2021/05/28 07:00:11;;;;;;;16.67;9.93;;;;;;;14.28;62.79;102665.03;5031714;28;20040;-80
2021/05/28 07:02:37;;;;;;;18.42;10.60;;;;;;;14.29;63.21;102670.34;5033217;28;20033;-84
2021/05/28 07:05:05;;;;;;;12.52;9.48;;;;;;;14.41;62.72;102666.75;5033042;28;20043;-82
2021/05/28 07:07:31;;;;;;;12.55;8.95;;;;;;;14.47;62.55;102672.03;5026727;28;20121;-82
2021/05/28 07:09:59;;;;;;;14.27;8.80;;;;;;;14.54;62.38;102665.75;5029257;28;20025;-81
2021/05/28 07:12:25;;;;;;;14.40;8.52;;;;;;;14.66;62.42;102667.47;5030329;28;20040;-82
2021/05/28 07:14:53;;;;;;;16.42;9.82;;;;;;;14.78;62.27;102661.16;5024734;28;20499;-82
2021/05/28 07:17:20;;;;;;;13.82;8.82;;;;;;;14.83;62.15;102664.66;5030972;28;20094;-82
2021/05/28 07:19:46;;;;;;;16.35;8.32;;;;;;;14.94;61.89;102671.69;5031469;28;20503;-83
2021/05/28 07:22:12;;;;;;;17.52;9.80;;;;;;;15.01;62.03;102662.72;5030899;28;20026;-83
2021/05/28 07:24:38;;;;;;;15.88;8.60;;;;;;;15.11;61.71;102664.41;5031251;28;20029;-82
2021/05/28 07:27:05;;;;;;;11.00;8.65;;;;;;;15.21;61.45;102662.53;5031979;28;20486;-83
2021/05/28 07:29:31;;;;;;;11.88;8.57;;;;;;;15.28;61.60;102660.69;5032534;28;20064;-83
2021/05/28 07:31:57;;;;;;;10.85;8.65;;;;;;;15.38;61.32;102673.03;5031680;28;20472;-83
2021/05/28 07:34:23;;;;;;;12.38;7.57;;;;;;;15.45;61.14;102664.06;5031979;28;20034;-83
2021/05/28 07:36:49;;;;;;;13.27;9.00;;;;;;;15.53;61.21;102667.50;5032180;28;20025;-83
2021/05/28 07:39:19;;;;;;;8.80;6.43;;;;;;;15.67;60.90;102669.16;5030001;28;20111;-84
2021/05/28 07:41:45;;;;;;;11.05;8.35;;;;;;;15.72;60.65;102663.75;5018020;28;20033;-83
2021/05/28 07:44:11;;;;;;;13.25;8.30;;;;;;;15.82;60.58;102666.31;5018378;28;20456;-83
2021/05/28 07:46:44;;;;;;;13.50;7.85;;;;;;;15.93;60.51;102670.66;5031152;28;20052;-82
2021/05/28 07:49:12;;;;;;;13.65;7.63;;;;;;;16.11;60.10;102673.06;5030849;28;20025;-83
2021/05/28 07:51:45;;;;;;;11.82;7.50;;;;;;;16.27;59.62;102664.81;5030592;28;20037;-82
2021/05/28 07:54:12;;;;;;;9.52;6.47;;;;;;;16.32;59.61;102658.50;5024416;28;20120;-83
2021/05/28 07:56:38;;;;;;;8.95;6.55;;;;;;;16.34;59.07;102658.47;5017500;28;20084;-83
2021/05/28 07:59:05;;;;;;;9.88;6.63;;;;;;;16.47;58.72;102661.84;5020063;28;20064;-82
2021/05/28 08:01:32;;;;;;;9.25;6.40;;;;;;;16.54;58.40;102659.97;5024447;28;20022;-83
2021/05/28 08:04:00;;;;;;;11.38;6.30;;;;;;;16.63;58.00;102663.34;5030848;28;20049;-84
2021/05/28 08:06:27;;;;;;;8.50;5.07;;;;;;;16.71;57.61;102660.56;5031411;28;20547;-83
2021/05/28 08:08:54;;;;;;;8.38;5.88;;;;;;;16.76;57.36;102660.47;5032780;28;20060;-83
2021/05/28 08:11:20;;;;;;;9.20;6.07;;;;;;;16.80;57.13;102660.41;5035493;28;20513;-84
2021/05/28 08:13:47;;;;;;;8.77;5.75;;;;;;;16.89;56.83;102658.47;5036255;28;20034;-82
2021/05/28 08:16:14;;;;;;;5.68;4.60;;;;;;;16.92;56.71;102659.34;5034564;28;20030;-82
2021/05/28 08:18:41;;;;;;;11.48;5.88;;;;;;;16.98;56.73;102658.34;5021577;28;20110;-82
2021/05/28 08:21:08;;;;;;;8.73;5.28;;;;;;;17.05;56.29;102659.13;5025287;28;20379;-84
2021/05/28 08:23:34;;;;;;;8.95;5.80;;;;;;;17.11;56.09;102665.25;5021803;28;20038;-83
2021/05/28 08:26:02;;;;;;;10.52;5.32;;;;;;;17.15;55.91;102666.06;5034234;28;20083;-82
2021/05/28 08:28:31;;;;;;;10.48;6.10;;;;;;;17.19;55.91;102672.25;5023319;28;20087;-83
2021/05/28 08:30:58;;;;;;;8.43;5.70;;;;;;;17.21;56.14;102670.41;5029316;28;20429;-83
2021/05/28 08:33:24;;;;;;;9.27;5.78;;;;;;;17.26;55.54;102671.25;5024798;28;20098;-82
2021/05/28 08:35:50;;;;;;;8.48;4.82;;;;;;;17.33;55.71;102664.81;5031900;28;20811;-81
2021/05/28 08:38:16;;;;;;;8.93;4.18;;;;;;;17.51;55.33;102670.75;5034993;28;20556;-82
2021/05/28 08:40:42;;;;;;;9.73;5.57;;;;;;;17.65;55.31;102660.63;5033304;28;20111;-83
2021/05/28 08:43:09;;;;;;;12.27;7.53;;;;;;;17.81;54.99;102666.56;5034905;28;20446;-82
2021/05/28 08:45:40;;;;;;;48.95;28.20;;;;;;;17.98;54.39;102652.81;5034084;28;20119;-81
2021/05/28 08:48:08;;;;;;;11.45;7.65;;;;;;;18.07;53.99;102666.00;5034682;28;20038;-85
2021/05/28 08:50:35;;;;;;;7.20;4.72;;;;;;;18.20;53.30;102657.69;5034967;28;20124;-82
2021/05/28 08:53:04;;;;;;;6.47;4.43;;;;;;;18.34;52.98;102654.69;5021487;28;20044;-83
2021/05/28 08:55:30;;;;;;;6.55;4.38;;;;;;;18.49;52.42;102664.16;5034829;28;20163;-82
2021/05/28 08:57:58;;;;;;;7.30;4.28;;;;;;;18.60;52.26;102662.09;5028083;28;20022;-81
2021/05/28 09:00:26;;;;;;;7.20;4.18;;;;;;;18.74;51.94;102661.75;5028018;28;20041;-84
2021/05/28 09:02:52;;;;;;;7.45;4.20;;;;;;;18.79;51.68;102656.25;5028949;28;20041;-82
2021/05/28 09:05:23;;;;;;;5.93;4.30;;;;;;;18.85;51.01;102656.09;5024329;28;20029;-81
2021/05/28 09:07:59;;;;;;;6.57;4.28;;;;;;;18.96;50.97;102654.03;5034825;28;20480;-80
2021/05/28 09:13:15;;;;;;;5.72;3.70;;;;;;;19.12;50.81;102648.28;5069289;28;20402;-84
2021/05/28 09:15:45;;;;;;;11.55;3.40;;;;;;;19.14;50.67;102641.94;5070372;28;20037;-84
2021/05/28 09:18:13;;;;;;;7.82;4.22;;;;;;;19.13;50.34;102639.28;5069317;28;20029;-82
2021/05/28 09:20:40;;;;;;;7.05;4.72;;;;;;;19.22;50.19;102639.03;5055773;28;20056;-83
2021/05/28 09:23:10;;;;;;;5.97;4.05;;;;;;;19.31;49.75;102638.75;5049876;28;20531;-83
2021/05/28 09:26:02;;;;;;;8.43;4.13;;;;;;;19.49;48.57;102636.47;5050319;28;20021;-84
2021/05/28 09:28:34;;;;;;;6.10;2.95;;;;;;;19.45;48.98;102629.44;5050474;28;20488;-84
2021/05/28 09:31:08;;;;;;;5.50;3.65;;;;;;;19.60;48.16;102629.00;5050705;28;20037;-84
2021/05/28 09:33:38;;;;;;;6.25;3.47;;;;;;;19.63;48.20;102633.41;5050132;28;20021;-83
2021/05/28 09:36:10;;;;;;;5.65;3.13;;;;;;;19.66;48.13;102623.41;5049157;28;20052;-81
2021/05/28 09:38:37;;;;;;;3.97;2.30;;;;;;;19.73;47.93;102640.25;5051015;28;20029;-83
2021/05/28 09:41:04;;;;;;;5.55;3.15;;;;;;;19.71;48.12;102631.34;5050768;28;20104;-84
2021/05/28 09:43:31;;;;;;;4.88;2.83;;;;;;;19.76;47.63;102636.59;5050161;28;20380;-83
2021/05/28 09:45:58;;;;;;;7.32;3.28;;;;;;;19.87;46.94;102635.34;5049197;28;20099;-83
2021/05/28 09:48:29;;;;;;;3.95;3.15;;;;;;;19.94;46.41;102632.47;5051158;28;20025;-83
2021/05/28 09:50:58;;;;;;;4.10;2.80;;;;;;;20.03;46.76;102621.44;5050893;28;20460;-83
2021/05/28 09:56:28;;;;;;;6.05;3.05;;;;;;;20.23;46.16;102620.81;5037137;28;20465;-83
2021/05/28 09:59:06;;;;;;;4.00;2.25;;;;;;;20.32;46.32;102625.88;5036848;28;20064;-82
2021/05/28 10:01:35;;;;;;;6.18;2.90;;;;;;;20.36;45.50;102624.84;5006791;28;20031;-83
2021/05/28 10:06:44;;;;;;;4.20;2.53;;;;;;;20.49;45.77;102629.84;5053976;27;20392;-83
2021/05/28 10:09:14;;;;;;;4.18;2.30;;;;;;;20.60;45.24;102619.59;5047342;28;20455;-82
2021/05/28 10:11:40;;;;;;;4.50;2.55;;;;;;;20.72;45.37;102617.44;5047735;28;20021;-87
2021/05/28 10:14:08;;;;;;;4.28;2.45;;;;;;;20.73;45.14;102622.75;5044316;28;20070;-80
2021/05/28 10:16:35;;;;;;;4.30;2.80;;;;;;;20.82;45.23;102611.69;5048098;28;20108;-81
2021/05/28 10:19:05;;;;;;;4.97;2.70;;;;;;;20.86;44.72;102615.16;5045499;28;20040;-83
2021/05/28 10:21:31;;;;;;;7.72;3.05;;;;;;;20.83;43.99;102601.78;5073054;27;20031;-82
2021/05/28 10:23:59;;;;;;;4.00;2.75;;;;;;;20.91;43.80;102599.69;5073874;27;20025;-83
2021/05/28 10:26:31;;;;;;;3.60;3.00;;;;;;;20.94;43.72;102601.41;5045561;28;20086;-82
2021/05/28 10:28:58;;;;;;;5.85;3.35;;;;;;;20.99;44.08;102602.97;5046176;28;20514;-82
2021/05/28 10:32:00;;;;;;;4.53;3.10;;;;;;;21.17;43.56;102597.84;5068710;28;20082;-82
2021/05/28 10:34:29;;;;;;;4.63;3.42;;;;;;;21.17;44.21;102593.34;5043988;28;20424;-82
2021/05/28 10:36:58;;;;;;;3.20;2.85;;;;;;;21.26;44.18;102594.81;5048139;28;20113;-82
2021/05/28 10:39:26;;;;;;;4.80;3.42;;;;;;;21.34;44.14;102595.41;5041222;28;20021;-82
2021/05/28 10:42:08;;;;;;;5.07;2.88;;;;;;;21.39;44.03;102602.44;5047156;28;20105;-83
2021/05/28 10:44:45;;;;;;;4.35;2.78;;;;;;;21.54;42.98;102596.47;5044442;28;20045;-82
2021/05/28 10:50:03;;;;;;;4.75;2.72;;;;;;;21.75;42.97;102596.63;5067044;27;20784;-82
2021/05/28 10:55:13;;;;;;;4.97;3.25;;;;;;;21.88;42.61;102587.09;5080015;27;20957;-81
2021/05/28 10:57:50;;;;;;;3.47;2.85;;;;;;;22.06;42.42;102592.69;5060653;28;20040;-82
2021/05/28 11:00:26;;;;;;;4.63;2.80;;;;;;;22.18;41.59;102597.59;5069822;28;20037;-81
2021/05/28 11:02:55;;;;;;;3.40;2.53;;;;;;;22.15;41.26;102589.59;5050229;28;20479;-82
2021/05/28 11:05:47;;;;;;;5.40;2.92;;;;;;;22.45;41.37;102586.59;5050162;28;20021;-81
2021/05/28 11:08:42;;;;;;;7.28;3.10;;;;;;;22.64;40.79;102585.78;5049957;28;20025;-82
2021/05/28 11:11:28;;;;;;;7.57;2.47;;;;;;;22.66;41.11;102586.63;5049416;28;20032;-80
2021/05/28 11:13:57;;;;;;;4.13;2.50;;;;;;;22.81;41.09;102575.13;5049342;28;20029;-81
2021/05/28 11:16:23;;;;;;;4.22;2.72;;;;;;;22.86;41.32;102578.50;5051349;28;20025;-82
2021/05/28 11:18:50;;;;;;;5.50;2.95;;;;;;;22.98;41.61;102576.19;5055895;28;20542;-81
2021/05/28 11:21:20;;;;;;;3.20;2.53;;;;;;;23.19;41.15;102583.38;5045762;28;20399;-82
2021/05/28 11:23:48;;;;;;;4.57;2.13;;;;;;;23.30;39.93;102574.75;5039323;28;20036;-81
2021/05/28 11:26:16;;;;;;;4.10;2.45;;;;;;;23.31;39.79;102576.50;5052759;28;20030;-82
2021/05/28 11:28:54;;;;;;;4.43;3.20;;;;;;;23.27;39.39;102573.06;5038729;28;20044;-82
2021/05/28 11:31:22;;;;;;;6.30;3.13;;;;;;;23.26;40.40;102576.75;5045308;28;20577;-80
2021/05/28 11:33:59;;;;;;;3.70;2.67;;;;;;;23.49;40.56;102580.19;5055072;28;20026;-82
2021/05/28 11:42:03;;;;;;;3.90;2.22;;;;;;;23.71;39.20;102571.03;5076698;28;20429;-81